sensor_id;sensor_type;location;lat;lon;timestamp;temperature;humidity
12438;DHT22;6283;51.330;12.374;2023-12-29T00:00:05;8.80;1.00
12438;DHT22;6283;51.330;12.374;2023-12-29T00:02:31;8.80;1.00
12438;DHT22;6283;51.330;12.374;2023-12-29T00:04:57;8.60;1.00
12438;DHT22;6283;51.330;12.374;2023-12-29T00:07:23;8.60;1.00
12438;DHT22;6283;51.330;12.374;2023-12-29T00:09:48;8.80;1.00
12438;DHT22;6283;51.330;12.374;2023-12-29T00:12:14;8.70;1.00
12438;DHT22;6283;51.330;12.374;2023-12-29T00:14:40;8.90;1.00
12438;DHT22;6283;51.330;12.374;2023-12-29T00:17:06;8.80;1.00
12438;DHT22;6283;51.330;12.374;2023-12-29T00:19:31;8.90;1.00
12438;DHT22;6283;51.330;12.374;2023-12-29T00:21:57;8.80;1.00
12438;DHT22;6283;51.330;12.374;2023-12-29T00:24:25;8.90;1.00
12438;DHT22;6283;51.330;12.374;2023-12-29T00:26:51;8.70;1.00
12438;DHT22;6283;51.330;12.374;2023-12-29T00:29:16;9.00;1.00
12438;DHT22;6283;51.330;12.374;2023-12-29T00:31:42;8.80;1.00
12438;DHT22;6283;51.330;12.374;2023-12-29T00:34:08;8.70;1.00
12438;DHT22;6283;51.330;12.374;2023-12-29T00:36:34;8.80;1.00
12438;DHT22;6283;51.330;12.374;2023-12-29T00:39:00;8.80;1.00
12438;DHT22;6283;51.330;12.374;2023-12-29T00:41:26;8.70;1.00
12438;DHT22;6283;51.330;12.374;2023-12-29T00:43:52;8.80;1.00
12438;DHT22;6283;51.330;12.374;2023-12-29T00:46:17;8.70;1.00
12438;DHT22;6283;51.330;12.374;2023-12-29T00:48:43;8.70;1.00
12438;DHT22;6283;51.330;12.374;2023-12-29T00:51:08;8.70;1.00
12438;DHT22;6283;51.330;12.374;2023-12-29T00:53:37;8.50;1.00
12438;DHT22;6283;51.330;12.374;2023-12-29T00:56:07;8.70;1.00
12438;DHT22;6283;51.330;12.374;2023-12-29T00:58:34;8.70;1.00
12438;DHT22;6283;51.330;12.374;2023-12-29T01:01:00;8.80;1.00
12438;DHT22;6283;51.330;12.374;2023-12-29T01:03:25;8.80;1.00
12438;DHT22;6283;51.330;12.374;2023-12-29T01:05:51;8.90;1.00
12438;DHT22;6283;51.330;12.374;2023-12-29T01:08:17;8.80;1.00
12438;DHT22;6283;51.330;12.374;2023-12-29T01:10:42;8.70;1.00
12438;DHT22;6283;51.330;12.374;2023-12-29T01:13:08;9.10;1.00
12438;DHT22;6283;51.330;12.374;2023-12-29T01:15:33;8.70;1.00
12438;DHT22;6283;51.330;12.374;2023-12-29T01:17:59;8.90;1.00
12438;DHT22;6283;51.330;12.374;2023-12-29T01:20:24;8.80;1.00
12438;DHT22;6283;51.330;12.374;2023-12-29T01:22:50;9.00;1.00
12438;DHT22;6283;51.330;12.374;2023-12-29T01:25:16;8.90;1.00
12438;DHT22;6283;51.330;12.374;2023-12-29T01:27:41;9.00;1.00
12438;DHT22;6283;51.330;12.374;2023-12-29T01:30:07;9.00;1.00
12438;DHT22;6283;51.330;12.374;2023-12-29T01:32:33;8.90;1.00
12438;DHT22;6283;51.330;12.374;2023-12-29T01:34:59;9.00;1.00
12438;DHT22;6283;51.330;12.374;2023-12-29T01:37:24;8.80;1.00
12438;DHT22;6283;51.330;12.374;2023-12-29T01:39:50;9.00;1.00
12438;DHT22;6283;51.330;12.374;2023-12-29T01:42:16;9.00;1.00
12438;DHT22;6283;51.330;12.374;2023-12-29T01:44:41;9.00;1.00
12438;DHT22;6283;51.330;12.374;2023-12-29T01:47:14;8.80;1.00
12438;DHT22;6283;51.330;12.374;2023-12-29T01:49:45;9.10;1.00
12438;DHT22;6283;51.330;12.374;2023-12-29T01:52:12;9.00;1.00
12438;DHT22;6283;51.330;12.374;2023-12-29T01:54:39;8.90;1.00
12438;DHT22;6283;51.330;12.374;2023-12-29T01:57:06;9.00;1.00
12438;DHT22;6283;51.330;12.374;2023-12-29T01:59:35;9.20;1.00
12438;DHT22;6283;51.330;12.374;2023-12-29T02:02:01;9.00;1.00
12438;DHT22;6283;51.330;12.374;2023-12-29T02:04:28;9.10;1.00
12438;DHT22;6283;51.330;12.374;2023-12-29T02:06:54;9.10;1.00
12438;DHT22;6283;51.330;12.374;2023-12-29T02:09:20;8.90;1.00
12438;DHT22;6283;51.330;12.374;2023-12-29T02:11:47;8.90;1.00
12438;DHT22;6283;51.330;12.374;2023-12-29T02:14:14;9.10;1.00
12438;DHT22;6283;51.330;12.374;2023-12-29T02:17:16;8.90;1.00
12438;DHT22;6283;51.330;12.374;2023-12-29T02:19:45;8.80;1.00
12438;DHT22;6283;51.330;12.374;2023-12-29T02:22:12;9.10;1.00
12438;DHT22;6283;51.330;12.374;2023-12-29T02:24:38;9.00;1.00
12438;DHT22;6283;51.330;12.374;2023-12-29T02:27:54;9.10;1.00
12438;DHT22;6283;51.330;12.374;2023-12-29T02:30:16;8.90;1.00
12438;DHT22;6283;51.330;12.374;2023-12-29T02:32:46;9.20;1.00
12438;DHT22;6283;51.330;12.374;2023-12-29T02:35:20;9.00;1.00
12438;DHT22;6283;51.330;12.374;2023-12-29T02:37:47;8.90;1.00
12438;DHT22;6283;51.330;12.374;2023-12-29T02:40:14;9.00;1.00
12438;DHT22;6283;51.330;12.374;2023-12-29T02:42:48;9.20;1.00
12438;DHT22;6283;51.330;12.374;2023-12-29T02:45:17;9.00;1.00
12438;DHT22;6283;51.330;12.374;2023-12-29T02:47:43;9.20;1.00
12438;DHT22;6283;51.330;12.374;2023-12-29T02:50:10;9.20;1.00
12438;DHT22;6283;51.330;12.374;2023-12-29T02:52:35;9.30;1.00
12438;DHT22;6283;51.330;12.374;2023-12-29T02:55:01;9.30;1.00
12438;DHT22;6283;51.330;12.374;2023-12-29T02:57:27;9.10;1.00
12438;DHT22;6283;51.330;12.374;2023-12-29T02:59:52;9.20;1.00
12438;DHT22;6283;51.330;12.374;2023-12-29T03:02:18;9.30;1.00
12438;DHT22;6283;51.330;12.374;2023-12-29T03:04:44;9.50;1.00
12438;DHT22;6283;51.330;12.374;2023-12-29T03:07:10;9.20;1.00
12438;DHT22;6283;51.330;12.374;2023-12-29T03:09:35;9.30;1.00
12438;DHT22;6283;51.330;12.374;2023-12-29T03:12:01;9.20;1.00
12438;DHT22;6283;51.330;12.374;2023-12-29T03:14:26;9.20;1.00
12438;DHT22;6283;51.330;12.374;2023-12-29T03:16:52;9.50;1.00
12438;DHT22;6283;51.330;12.374;2023-12-29T03:19:18;9.10;1.00
12438;DHT22;6283;51.330;12.374;2023-12-29T03:21:43;9.40;1.00
12438;DHT22;6283;51.330;12.374;2023-12-29T03:24:09;9.30;1.00
12438;DHT22;6283;51.330;12.374;2023-12-29T03:26:35;9.60;1.00
12438;DHT22;6283;51.330;12.374;2023-12-29T03:29:00;9.10;1.00
12438;DHT22;6283;51.330;12.374;2023-12-29T03:31:26;9.30;1.00
12438;DHT22;6283;51.330;12.374;2023-12-29T03:33:53;9.40;1.00
12438;DHT22;6283;51.330;12.374;2023-12-29T03:36:18;9.30;1.00
12438;DHT22;6283;51.330;12.374;2023-12-29T03:38:44;9.40;1.00
12438;DHT22;6283;51.330;12.374;2023-12-29T03:41:10;9.40;1.00
12438;DHT22;6283;51.330;12.374;2023-12-29T03:43:35;9.10;1.00
12438;DHT22;6283;51.330;12.374;2023-12-29T03:46:01;9.10;1.00
12438;DHT22;6283;51.330;12.374;2023-12-29T03:48:26;9.20;1.00
12438;DHT22;6283;51.330;12.374;2023-12-29T03:50:52;9.10;1.00
12438;DHT22;6283;51.330;12.374;2023-12-29T03:53:18;9.10;1.00
12438;DHT22;6283;51.330;12.374;2023-12-29T03:55:44;9.10;1.00
12438;DHT22;6283;51.330;12.374;2023-12-29T03:58:10;9.10;1.00
12438;DHT22;6283;51.330;12.374;2023-12-29T04:00:36;9.10;1.00
12438;DHT22;6283;51.330;12.374;2023-12-29T04:03:02;9.00;1.00
12438;DHT22;6283;51.330;12.374;2023-12-29T04:05:27;9.10;1.00
12438;DHT22;6283;51.330;12.374;2023-12-29T04:07:53;9.20;1.00
12438;DHT22;6283;51.330;12.374;2023-12-29T04:10:19;9.10;1.00
12438;DHT22;6283;51.330;12.374;2023-12-29T04:12:44;9.00;1.00
12438;DHT22;6283;51.330;12.374;2023-12-29T04:15:11;9.20;1.00
12438;DHT22;6283;51.330;12.374;2023-12-29T04:17:36;8.90;1.00
12438;DHT22;6283;51.330;12.374;2023-12-29T04:20:02;9.10;1.00
12438;DHT22;6283;51.330;12.374;2023-12-29T04:22:28;9.10;1.00
12438;DHT22;6283;51.330;12.374;2023-12-29T04:24:54;9.10;1.00
12438;DHT22;6283;51.330;12.374;2023-12-29T04:27:21;9.00;1.00
12438;DHT22;6283;51.330;12.374;2023-12-29T04:29:47;9.20;1.00
12438;DHT22;6283;51.330;12.374;2023-12-29T04:32:14;9.10;1.00
12438;DHT22;6283;51.330;12.374;2023-12-29T04:34:39;9.20;1.00
12438;DHT22;6283;51.330;12.374;2023-12-29T04:37:05;9.10;1.00
12438;DHT22;6283;51.330;12.374;2023-12-29T04:39:31;9.10;1.00
12438;DHT22;6283;51.330;12.374;2023-12-29T04:41:56;9.00;1.00
12438;DHT22;6283;51.330;12.374;2023-12-29T04:44:22;9.20;1.00
12438;DHT22;6283;51.330;12.374;2023-12-29T04:46:47;8.90;1.00
12438;DHT22;6283;51.330;12.374;2023-12-29T04:49:13;9.10;1.00
12438;DHT22;6283;51.330;12.374;2023-12-29T04:51:39;9.10;1.00
12438;DHT22;6283;51.330;12.374;2023-12-29T04:54:05;9.10;1.00
12438;DHT22;6283;51.330;12.374;2023-12-29T04:56:30;9.00;1.00
12438;DHT22;6283;51.330;12.374;2023-12-29T04:58:56;9.10;1.00
12438;DHT22;6283;51.330;12.374;2023-12-29T05:01:22;9.10;1.00
12438;DHT22;6283;51.330;12.374;2023-12-29T05:03:47;9.10;1.00
12438;DHT22;6283;51.330;12.374;2023-12-29T05:06:13;9.30;1.00
12438;DHT22;6283;51.330;12.374;2023-12-29T05:08:38;9.20;1.00
12438;DHT22;6283;51.330;12.374;2023-12-29T05:11:04;9.10;1.00
12438;DHT22;6283;51.330;12.374;2023-12-29T05:13:30;9.10;1.00
12438;DHT22;6283;51.330;12.374;2023-12-29T05:15:55;9.20;1.00
12438;DHT22;6283;51.330;12.374;2023-12-29T05:18:21;9.10;1.00
12438;DHT22;6283;51.330;12.374;2023-12-29T05:20:46;9.10;1.00
12438;DHT22;6283;51.330;12.374;2023-12-29T05:23:12;9.00;1.00
12438;DHT22;6283;51.330;12.374;2023-12-29T05:25:38;9.20;1.00
12438;DHT22;6283;51.330;12.374;2023-12-29T05:28:04;9.10;1.00
12438;DHT22;6283;51.330;12.374;2023-12-29T05:30:30;9.20;1.00
12438;DHT22;6283;51.330;12.374;2023-12-29T05:32:57;9.00;1.00
12438;DHT22;6283;51.330;12.374;2023-12-29T05:35:22;9.20;1.00
12438;DHT22;6283;51.330;12.374;2023-12-29T05:37:48;9.10;1.00
12438;DHT22;6283;51.330;12.374;2023-12-29T05:40:15;9.10;1.00
12438;DHT22;6283;51.330;12.374;2023-12-29T05:42:41;9.10;1.00
12438;DHT22;6283;51.330;12.374;2023-12-29T05:45:07;9.00;1.00
12438;DHT22;6283;51.330;12.374;2023-12-29T05:47:32;9.00;1.00
12438;DHT22;6283;51.330;12.374;2023-12-29T05:49:58;9.20;1.00
12438;DHT22;6283;51.330;12.374;2023-12-29T05:52:24;9.10;1.00
12438;DHT22;6283;51.330;12.374;2023-12-29T05:54:50;9.10;1.00
12438;DHT22;6283;51.330;12.374;2023-12-29T05:57:15;9.20;1.00
12438;DHT22;6283;51.330;12.374;2023-12-29T05:59:41;9.30;1.00
12438;DHT22;6283;51.330;12.374;2023-12-29T06:02:07;9.30;1.00
12438;DHT22;6283;51.330;12.374;2023-12-29T06:04:32;9.40;1.00
12438;DHT22;6283;51.330;12.374;2023-12-29T06:06:58;9.40;1.00
12438;DHT22;6283;51.330;12.374;2023-12-29T06:09:23;9.60;1.00
12438;DHT22;6283;51.330;12.374;2023-12-29T06:11:49;9.30;1.00
12438;DHT22;6283;51.330;12.374;2023-12-29T06:14:15;9.20;1.00
12438;DHT22;6283;51.330;12.374;2023-12-29T06:16:41;9.20;1.00
12438;DHT22;6283;51.330;12.374;2023-12-29T06:19:07;9.50;1.00
12438;DHT22;6283;51.330;12.374;2023-12-29T06:21:33;9.30;1.00
12438;DHT22;6283;51.330;12.374;2023-12-29T06:23:58;9.40;1.00
12438;DHT22;6283;51.330;12.374;2023-12-29T06:26:24;9.50;1.00
12438;DHT22;6283;51.330;12.374;2023-12-29T06:28:50;9.40;1.00
12438;DHT22;6283;51.330;12.374;2023-12-29T06:31:17;9.30;1.00
12438;DHT22;6283;51.330;12.374;2023-12-29T06:33:43;9.30;1.00
12438;DHT22;6283;51.330;12.374;2023-12-29T06:36:10;9.40;1.00
12438;DHT22;6283;51.330;12.374;2023-12-29T06:38:36;9.50;1.00
12438;DHT22;6283;51.330;12.374;2023-12-29T06:41:03;9.40;1.00
12438;DHT22;6283;51.330;12.374;2023-12-29T06:43:30;9.40;1.00
12438;DHT22;6283;51.330;12.374;2023-12-29T06:45:55;9.40;1.00
12438;DHT22;6283;51.330;12.374;2023-12-29T06:48:21;9.50;1.00
12438;DHT22;6283;51.330;12.374;2023-12-29T06:50:47;9.40;1.00
12438;DHT22;6283;51.330;12.374;2023-12-29T06:53:13;9.40;1.00
12438;DHT22;6283;51.330;12.374;2023-12-29T06:55:38;9.50;1.00
12438;DHT22;6283;51.330;12.374;2023-12-29T06:58:04;9.50;1.00
12438;DHT22;6283;51.330;12.374;2023-12-29T07:00:30;9.50;1.00
12438;DHT22;6283;51.330;12.374;2023-12-29T07:02:56;9.50;1.00
12438;DHT22;6283;51.330;12.374;2023-12-29T07:05:22;9.50;1.00
12438;DHT22;6283;51.330;12.374;2023-12-29T07:07:47;9.50;1.00
12438;DHT22;6283;51.330;12.374;2023-12-29T07:10:13;9.70;1.00
12438;DHT22;6283;51.330;12.374;2023-12-29T07:12:42;9.80;1.00
12438;DHT22;6283;51.330;12.374;2023-12-29T07:15:08;9.80;1.00
12438;DHT22;6283;51.330;12.374;2023-12-29T07:17:33;9.70;1.00
12438;DHT22;6283;51.330;12.374;2023-12-29T07:20:00;9.70;1.00
12438;DHT22;6283;51.330;12.374;2023-12-29T07:22:26;9.60;1.00
12438;DHT22;6283;51.330;12.374;2023-12-29T07:24:52;9.70;1.00
12438;DHT22;6283;51.330;12.374;2023-12-29T07:27:17;9.70;1.00
12438;DHT22;6283;51.330;12.374;2023-12-29T07:29:43;9.90;1.00
12438;DHT22;6283;51.330;12.374;2023-12-29T07:32:08;10.00;1.00
12438;DHT22;6283;51.330;12.374;2023-12-29T07:34:34;9.90;1.00
12438;DHT22;6283;51.330;12.374;2023-12-29T07:37:00;9.90;1.00
12438;DHT22;6283;51.330;12.374;2023-12-29T07:39:25;9.80;1.00
12438;DHT22;6283;51.330;12.374;2023-12-29T07:41:51;9.90;1.00
12438;DHT22;6283;51.330;12.374;2023-12-29T07:44:17;9.70;1.00
12438;DHT22;6283;51.330;12.374;2023-12-29T07:46:43;10.10;1.00
12438;DHT22;6283;51.330;12.374;2023-12-29T07:49:12;9.80;1.00
12438;DHT22;6283;51.330;12.374;2023-12-29T07:51:42;10.00;1.00
12438;DHT22;6283;51.330;12.374;2023-12-29T07:54:08;10.10;1.00
12438;DHT22;6283;51.330;12.374;2023-12-29T07:56:34;10.10;1.00
12438;DHT22;6283;51.330;12.374;2023-12-29T07:59:03;9.80;1.00
12438;DHT22;6283;51.330;12.374;2023-12-29T08:01:28;9.90;1.00
12438;DHT22;6283;51.330;12.374;2023-12-29T08:03:54;9.90;1.00
12438;DHT22;6283;51.330;12.374;2023-12-29T08:06:19;10.10;1.00
12438;DHT22;6283;51.330;12.374;2023-12-29T08:08:45;9.90;1.00
12438;DHT22;6283;51.330;12.374;2023-12-29T08:11:17;9.80;1.00
12438;DHT22;6283;51.330;12.374;2023-12-29T08:13:47;10.10;1.00
12438;DHT22;6283;51.330;12.374;2023-12-29T08:16:13;9.90;1.00
12438;DHT22;6283;51.330;12.374;2023-12-29T08:18:38;10.00;1.00
12438;DHT22;6283;51.330;12.374;2023-12-29T08:21:04;10.00;1.00
12438;DHT22;6283;51.330;12.374;2023-12-29T08:23:30;9.80;1.00
12438;DHT22;6283;51.330;12.374;2023-12-29T08:25:58;10.20;1.00
12438;DHT22;6283;51.330;12.374;2023-12-29T08:28:24;9.90;1.00
12438;DHT22;6283;51.330;12.374;2023-12-29T08:30:50;10.10;1.00
12438;DHT22;6283;51.330;12.374;2023-12-29T08:33:16;10.10;1.00
12438;DHT22;6283;51.330;12.374;2023-12-29T08:35:41;9.90;1.00
12438;DHT22;6283;51.330;12.374;2023-12-29T08:38:07;10.10;1.00
12438;DHT22;6283;51.330;12.374;2023-12-29T08:40:33;10.10;1.00
12438;DHT22;6283;51.330;12.374;2023-12-29T08:42:58;10.10;1.00
12438;DHT22;6283;51.330;12.374;2023-12-29T08:45:26;10.00;1.00
12438;DHT22;6283;51.330;12.374;2023-12-29T08:47:52;10.20;1.00
12438;DHT22;6283;51.330;12.374;2023-12-29T08:50:18;10.00;1.00
12438;DHT22;6283;51.330;12.374;2023-12-29T08:52:43;10.10;1.00
12438;DHT22;6283;51.330;12.374;2023-12-29T08:55:09;10.00;1.00
12438;DHT22;6283;51.330;12.374;2023-12-29T08:57:35;10.10;1.00
12438;DHT22;6283;51.330;12.374;2023-12-29T09:00:01;10.20;1.00
12438;DHT22;6283;51.330;12.374;2023-12-29T09:02:26;10.30;1.00
12438;DHT22;6283;51.330;12.374;2023-12-29T09:04:52;10.30;1.00
12438;DHT22;6283;51.330;12.374;2023-12-29T09:07:17;10.40;1.00
12438;DHT22;6283;51.330;12.374;2023-12-29T09:09:43;10.40;1.00
12438;DHT22;6283;51.330;12.374;2023-12-29T09:12:09;10.40;1.00
12438;DHT22;6283;51.330;12.374;2023-12-29T09:14:34;10.40;1.00
12438;DHT22;6283;51.330;12.374;2023-12-29T09:17:00;10.60;1.00
12438;DHT22;6283;51.330;12.374;2023-12-29T09:19:26;10.40;1.00
12438;DHT22;6283;51.330;12.374;2023-12-29T09:21:52;10.50;1.00
12438;DHT22;6283;51.330;12.374;2023-12-29T09:24:17;10.60;1.00
12438;DHT22;6283;51.330;12.374;2023-12-29T09:26:43;10.80;1.00
12438;DHT22;6283;51.330;12.374;2023-12-29T09:29:09;10.80;1.00
12438;DHT22;6283;51.330;12.374;2023-12-29T09:31:35;10.70;1.00
12438;DHT22;6283;51.330;12.374;2023-12-29T09:34:01;10.60;1.00
12438;DHT22;6283;51.330;12.374;2023-12-29T09:36:27;10.60;1.00
12438;DHT22;6283;51.330;12.374;2023-12-29T09:38:52;10.50;1.00
12438;DHT22;6283;51.330;12.374;2023-12-29T09:41:20;10.70;1.00
12438;DHT22;6283;51.330;12.374;2023-12-29T09:43:48;10.60;1.00
12438;DHT22;6283;51.330;12.374;2023-12-29T09:46:17;10.90;1.00
12438;DHT22;6283;51.330;12.374;2023-12-29T09:48:45;10.90;1.00
12438;DHT22;6283;51.330;12.374;2023-12-29T09:51:13;10.80;1.00
12438;DHT22;6283;51.330;12.374;2023-12-29T09:53:40;10.90;1.00
12438;DHT22;6283;51.330;12.374;2023-12-29T09:56:08;10.70;1.00
12438;DHT22;6283;51.330;12.374;2023-12-29T09:58:35;10.80;1.00
12438;DHT22;6283;51.330;12.374;2023-12-29T10:01:04;10.90;1.00
12438;DHT22;6283;51.330;12.374;2023-12-29T10:03:30;11.10;1.00
12438;DHT22;6283;51.330;12.374;2023-12-29T10:06:03;10.90;1.00
12438;DHT22;6283;51.330;12.374;2023-12-29T10:08:32;11.00;1.00
12438;DHT22;6283;51.330;12.374;2023-12-29T10:11:00;11.10;1.00
12438;DHT22;6283;51.330;12.374;2023-12-29T10:13:26;10.90;1.00
12438;DHT22;6283;51.330;12.374;2023-12-29T10:22:24;11.20;1.00
12438;DHT22;6283;51.330;12.374;2023-12-29T10:24:48;11.20;1.00
12438;DHT22;6283;51.330;12.374;2023-12-29T10:27:15;11.20;1.00
12438;DHT22;6283;51.330;12.374;2023-12-29T10:29:41;11.20;1.00
12438;DHT22;6283;51.330;12.374;2023-12-29T10:32:07;11.20;1.00
12438;DHT22;6283;51.330;12.374;2023-12-29T10:34:32;11.10;1.00
12438;DHT22;6283;51.330;12.374;2023-12-29T10:36:59;11.20;1.00
12438;DHT22;6283;51.330;12.374;2023-12-29T10:39:25;11.20;1.00
12438;DHT22;6283;51.330;12.374;2023-12-29T10:42:03;11.30;1.00
12438;DHT22;6283;51.330;12.374;2023-12-29T10:44:30;11.40;1.00
12438;DHT22;6283;51.330;12.374;2023-12-29T10:46:56;11.30;1.00
12438;DHT22;6283;51.330;12.374;2023-12-29T10:49:21;11.20;1.00
12438;DHT22;6283;51.330;12.374;2023-12-29T10:51:47;11.20;1.00
12438;DHT22;6283;51.330;12.374;2023-12-29T10:54:20;11.20;1.00
12438;DHT22;6283;51.330;12.374;2023-12-29T10:57:11;11.30;1.00
12438;DHT22;6283;51.330;12.374;2023-12-29T10:59:38;11.10;1.00
12438;DHT22;6283;51.330;12.374;2023-12-29T11:02:04;11.20;1.00
12438;DHT22;6283;51.330;12.374;2023-12-29T11:04:30;11.30;1.00
12438;DHT22;6283;51.330;12.374;2023-12-29T11:06:55;11.20;1.00
12438;DHT22;6283;51.330;12.374;2023-12-29T11:09:32;11.20;1.00
12438;DHT22;6283;51.330;12.374;2023-12-29T11:12:01;11.40;1.00
12438;DHT22;6283;51.330;12.374;2023-12-29T11:14:29;11.40;1.00
12438;DHT22;6283;51.330;12.374;2023-12-29T11:16:55;11.30;1.00
12438;DHT22;6283;51.330;12.374;2023-12-29T11:19:22;11.40;1.00
12438;DHT22;6283;51.330;12.374;2023-12-29T11:21:52;11.70;1.00
12438;DHT22;6283;51.330;12.374;2023-12-29T11:24:21;11.70;1.00
12438;DHT22;6283;51.330;12.374;2023-12-29T11:26:49;11.70;1.00
12438;DHT22;6283;51.330;12.374;2023-12-29T11:29:16;11.50;1.00
12438;DHT22;6283;51.330;12.374;2023-12-29T11:31:43;11.50;1.00
12438;DHT22;6283;51.330;12.374;2023-12-29T11:36:43;11.70;1.00
12438;DHT22;6283;51.330;12.374;2023-12-29T11:39:49;11.70;1.00
12438;DHT22;6283;51.330;12.374;2023-12-29T11:42:21;12.00;1.00
12438;DHT22;6283;51.330;12.374;2023-12-29T11:44:48;11.70;1.00
12438;DHT22;6283;51.330;12.374;2023-12-29T11:47:35;11.60;1.00
12438;DHT22;6283;51.330;12.374;2023-12-29T11:50:01;11.80;1.00
12438;DHT22;6283;51.330;12.374;2023-12-29T11:52:37;11.70;1.00
12438;DHT22;6283;51.330;12.374;2023-12-29T11:55:14;11.90;1.00
12438;DHT22;6283;51.330;12.374;2023-12-29T11:57:46;11.50;1.00
12438;DHT22;6283;51.330;12.374;2023-12-29T12:00:12;11.90;1.00
12438;DHT22;6283;51.330;12.374;2023-12-29T12:02:38;11.60;1.00
12438;DHT22;6283;51.330;12.374;2023-12-29T12:05:04;11.50;1.00
12438;DHT22;6283;51.330;12.374;2023-12-29T12:12:56;11.60;1.00
12438;DHT22;6283;51.330;12.374;2023-12-29T12:20:22;11.60;1.00
12438;DHT22;6283;51.330;12.374;2023-12-29T12:23:00;11.60;1.00
12438;DHT22;6283;51.330;12.374;2023-12-29T12:25:27;11.70;1.00
12438;DHT22;6283;51.330;12.374;2023-12-29T12:27:57;11.60;1.00
12438;DHT22;6283;51.330;12.374;2023-12-29T12:30:23;11.60;1.00
12438;DHT22;6283;51.330;12.374;2023-12-29T12:32:58;11.50;1.00
12438;DHT22;6283;51.330;12.374;2023-12-29T12:35:24;11.60;1.00
12438;DHT22;6283;51.330;12.374;2023-12-29T12:38:16;11.50;1.00
12438;DHT22;6283;51.330;12.374;2023-12-29T12:40:49;11.50;1.00
12438;DHT22;6283;51.330;12.374;2023-12-29T12:43:16;11.50;1.00
12438;DHT22;6283;51.330;12.374;2023-12-29T12:45:52;11.60;1.00
12438;DHT22;6283;51.330;12.374;2023-12-29T12:48:40;11.70;1.00
12438;DHT22;6283;51.330;12.374;2023-12-29T12:51:07;11.60;1.00
12438;DHT22;6283;51.330;12.374;2023-12-29T12:53:32;11.40;1.00
12438;DHT22;6283;51.330;12.374;2023-12-29T12:55:58;11.40;1.00
12438;DHT22;6283;51.330;12.374;2023-12-29T12:58:24;11.60;1.00
12438;DHT22;6283;51.330;12.374;2023-12-29T13:00:51;11.60;1.00
12438;DHT22;6283;51.330;12.374;2023-12-29T13:03:17;11.60;1.00
12438;DHT22;6283;51.330;12.374;2023-12-29T13:05:43;11.80;1.00
12438;DHT22;6283;51.330;12.374;2023-12-29T13:08:09;11.60;1.00
12438;DHT22;6283;51.330;12.374;2023-12-29T13:10:41;11.70;1.00
12438;DHT22;6283;51.330;12.374;2023-12-29T13:13:07;11.70;1.00
12438;DHT22;6283;51.330;12.374;2023-12-29T13:15:33;11.60;1.00
12438;DHT22;6283;51.330;12.374;2023-12-29T13:17:59;11.70;1.00
12438;DHT22;6283;51.330;12.374;2023-12-29T13:20:25;11.70;1.00
12438;DHT22;6283;51.330;12.374;2023-12-29T13:22:50;11.60;1.00
12438;DHT22;6283;51.330;12.374;2023-12-29T13:25:25;11.50;1.00
12438;DHT22;6283;51.330;12.374;2023-12-29T13:27:52;11.70;1.00
12438;DHT22;6283;51.330;12.374;2023-12-29T13:30:19;11.80;1.00
12438;DHT22;6283;51.330;12.374;2023-12-29T13:32:47;11.80;1.00
12438;DHT22;6283;51.330;12.374;2023-12-29T13:35:34;11.60;1.00
12438;DHT22;6283;51.330;12.374;2023-12-29T13:38:10;11.70;1.00
12438;DHT22;6283;51.330;12.374;2023-12-29T13:40:42;11.80;1.00
12438;DHT22;6283;51.330;12.374;2023-12-29T13:43:11;11.60;1.00
12438;DHT22;6283;51.330;12.374;2023-12-29T13:45:39;11.60;1.00
12438;DHT22;6283;51.330;12.374;2023-12-29T13:48:06;11.80;1.00
12438;DHT22;6283;51.330;12.374;2023-12-29T13:50:32;11.60;1.00
12438;DHT22;6283;51.330;12.374;2023-12-29T13:52:59;11.50;1.00
12438;DHT22;6283;51.330;12.374;2023-12-29T13:55:24;11.90;1.00
12438;DHT22;6283;51.330;12.374;2023-12-29T13:57:53;11.60;1.00
12438;DHT22;6283;51.330;12.374;2023-12-29T14:05:28;11.70;1.00
12438;DHT22;6283;51.330;12.374;2023-12-29T14:08:04;11.70;1.00
12438;DHT22;6283;51.330;12.374;2023-12-29T14:10:36;11.50;1.00
12438;DHT22;6283;51.330;12.374;2023-12-29T14:13:12;11.50;1.00
12438;DHT22;6283;51.330;12.374;2023-12-29T14:15:40;11.70;1.00
12438;DHT22;6283;51.330;12.374;2023-12-29T14:20:58;11.40;1.00
12438;DHT22;6283;51.330;12.374;2023-12-29T14:23:25;11.50;1.00
12438;DHT22;6283;51.330;12.374;2023-12-29T14:25:50;11.60;1.00
12438;DHT22;6283;51.330;12.374;2023-12-29T14:28:18;11.50;1.00
12438;DHT22;6283;51.330;12.374;2023-12-29T14:30:44;11.60;1.00
12438;DHT22;6283;51.330;12.374;2023-12-29T14:33:10;11.50;1.00
12438;DHT22;6283;51.330;12.374;2023-12-29T14:35:36;11.50;1.00
12438;DHT22;6283;51.330;12.374;2023-12-29T14:38:01;11.50;1.00
12438;DHT22;6283;51.330;12.374;2023-12-29T14:40:27;11.70;1.00
12438;DHT22;6283;51.330;12.374;2023-12-29T14:42:53;11.60;1.00
12438;DHT22;6283;51.330;12.374;2023-12-29T14:45:19;11.60;1.00
12438;DHT22;6283;51.330;12.374;2023-12-29T14:47:45;11.60;1.00
12438;DHT22;6283;51.330;12.374;2023-12-29T14:50:11;11.60;1.00
12438;DHT22;6283;51.330;12.374;2023-12-29T14:52:37;11.50;1.00
12438;DHT22;6283;51.330;12.374;2023-12-29T14:55:03;11.60;1.00
12438;DHT22;6283;51.330;12.374;2023-12-29T14:57:29;11.60;1.00
12438;DHT22;6283;51.330;12.374;2023-12-29T14:59:54;11.60;1.00
12438;DHT22;6283;51.330;12.374;2023-12-29T15:02:20;11.60;1.00
12438;DHT22;6283;51.330;12.374;2023-12-29T15:04:45;11.60;1.00
12438;DHT22;6283;51.330;12.374;2023-12-29T15:07:11;11.60;1.00
12438;DHT22;6283;51.330;12.374;2023-12-29T15:09:37;11.70;1.00
12438;DHT22;6283;51.330;12.374;2023-12-29T15:12:03;11.60;1.00
12438;DHT22;6283;51.330;12.374;2023-12-29T15:14:30;11.60;1.00
12438;DHT22;6283;51.330;12.374;2023-12-29T15:16:56;11.50;1.00
12438;DHT22;6283;51.330;12.374;2023-12-29T15:19:21;11.50;1.00
12438;DHT22;6283;51.330;12.374;2023-12-29T15:21:47;11.40;1.00
12438;DHT22;6283;51.330;12.374;2023-12-29T15:24:12;11.50;1.00
12438;DHT22;6283;51.330;12.374;2023-12-29T15:26:38;11.60;1.00
12438;DHT22;6283;51.330;12.374;2023-12-29T15:29:04;11.30;1.00
12438;DHT22;6283;51.330;12.374;2023-12-29T15:31:29;11.20;1.00
12438;DHT22;6283;51.330;12.374;2023-12-29T15:33:55;11.30;1.00
12438;DHT22;6283;51.330;12.374;2023-12-29T15:36:21;11.20;1.00
12438;DHT22;6283;51.330;12.374;2023-12-29T15:38:48;11.60;1.00
12438;DHT22;6283;51.330;12.374;2023-12-29T15:41:14;11.30;1.00
12438;DHT22;6283;51.330;12.374;2023-12-29T15:43:40;11.50;1.00
12438;DHT22;6283;51.330;12.374;2023-12-29T15:46:18;11.30;1.00
12438;DHT22;6283;51.330;12.374;2023-12-29T15:48:47;11.50;1.00
12438;DHT22;6283;51.330;12.374;2023-12-29T15:51:13;11.30;1.00
12438;DHT22;6283;51.330;12.374;2023-12-29T15:53:40;11.20;1.00
12438;DHT22;6283;51.330;12.374;2023-12-29T15:56:06;11.50;1.00
12438;DHT22;6283;51.330;12.374;2023-12-29T15:58:32;11.50;1.00
12438;DHT22;6283;51.330;12.374;2023-12-29T16:00:58;11.40;1.00
12438;DHT22;6283;51.330;12.374;2023-12-29T16:03:24;11.40;1.00
12438;DHT22;6283;51.330;12.374;2023-12-29T16:05:49;11.40;1.00
12438;DHT22;6283;51.330;12.374;2023-12-29T16:08:15;11.40;1.00
12438;DHT22;6283;51.330;12.374;2023-12-29T16:10:42;11.40;1.00
12438;DHT22;6283;51.330;12.374;2023-12-29T16:13:08;11.40;1.00
12438;DHT22;6283;51.330;12.374;2023-12-29T16:15:34;11.30;1.00
12438;DHT22;6283;51.330;12.374;2023-12-29T16:17:59;11.30;1.00
12438;DHT22;6283;51.330;12.374;2023-12-29T16:20:26;11.50;1.00